首页
METAR-TAF:

METAR-TAF

机场 :

塔斯卡卢萨, 阿拉巴马州, 美国

纬度: 33-12-43N, 经度: 087-36-57W, 海拔: 52米

当前天气观测

该预报发布于47分钟前的19:53 UTC
风速4节,风向多变
温度 19°C
湿度 32%
气压 1015 hPa
能見度: 16.1公里
天空无云

METAR: KTCL 171953Z VRB04KT 10SM CLR 19/02 A2996 RMK AO2 SLP145 T01890017

时间: 14:40 (20:40 UTC)

预报

该预报发布于3小时和20分钟前的17:20 UTC
预报有效从17日的 18点(UTC)到 18日的 18点(UTC)
风速4节,风向西转西南
能見度: 10公里
散云层高于25000英尺
从 18日的 1200点(UTC)
风速4节,风向西北
能見度: 10公里
天空无云

TAF: KTCL 171720Z 1718/1818 25004KT P6SM SCT250 FM181200 32004KT P6SM SKC

超过4000个机场的气象观测和天气预报(METAR&TAF报告)。

可查询的气象台以黄色和红色小点在地图上表示。

将鼠标移到小点上方,可查看气象台名称。

然后点击查看天气观测和预报。

如需切换地图:点击带黑十字的绿色按钮放大地图;点击带横线的绿色按钮缩小地图;或者点击绿色箭头查看邻近地区的地图。


METAR-TAF: